createdAt,value
2018-12-29T00:00:32.798Z,5.70
2018-12-29T00:03:04.103Z,5.70
2018-12-29T00:05:35.100Z,5.70
2018-12-29T00:08:06.390Z,5.70
2018-12-29T00:10:37.542Z,5.80
2018-12-29T00:13:09.044Z,5.70
2018-12-29T00:15:40.269Z,5.80
2018-12-29T00:18:11.500Z,5.70
2018-12-29T00:20:42.761Z,5.70
2018-12-29T00:23:21.138Z,5.70
2018-12-29T00:25:52.639Z,5.80
2018-12-29T00:28:23.871Z,5.80
2018-12-29T00:30:54.840Z,5.80
2018-12-29T00:33:25.994Z,5.80
2018-12-29T00:35:59.750Z,5.80
2018-12-29T00:38:30.951Z,5.80
2018-12-29T00:41:02.197Z,5.80
2018-12-29T00:43:33.656Z,5.80
2018-12-29T00:46:04.901Z,5.90
2018-12-29T00:48:35.935Z,5.90
2018-12-29T00:51:06.851Z,5.80
2018-12-29T00:53:38.059Z,5.80
2018-12-29T00:56:08.955Z,5.80
2018-12-29T00:58:40.220Z,5.80
2018-12-29T01:01:11.437Z,5.80
2018-12-29T01:03:42.471Z,5.80
2018-12-29T01:06:13.745Z,5.80
2018-12-29T01:08:45.195Z,5.70
2018-12-29T01:11:16.638Z,5.70
2018-12-29T01:13:47.943Z,5.70
2018-12-29T01:16:19.141Z,5.70
2018-12-29T01:18:50.150Z,5.80
2018-12-29T01:21:21.442Z,5.80
2018-12-29T01:23:52.588Z,5.70
2018-12-29T01:26:24.229Z,5.70
2018-12-29T01:28:55.556Z,5.70
2018-12-29T01:31:26.995Z,5.70
2018-12-29T01:33:58.241Z,5.60
2018-12-29T01:36:30.012Z,5.50
2018-12-29T01:39:01.191Z,5.50
2018-12-29T01:41:34.084Z,5.50
2018-12-29T01:44:05.465Z,5.40
2018-12-29T01:46:36.466Z,5.40
2018-12-29T01:49:07.779Z,5.40
2018-12-29T01:51:38.764Z,5.40
2018-12-29T01:54:10.070Z,5.40
2018-12-29T01:56:41.112Z,5.40
2018-12-29T01:59:12.237Z,5.40
2018-12-29T02:01:43.301Z,5.40
2018-12-29T02:04:14.352Z,5.40
2018-12-29T02:06:45.398Z,5.40
2018-12-29T02:09:16.475Z,5.40
2018-12-29T02:11:47.781Z,5.30
2018-12-29T02:14:18.867Z,5.30
2018-12-29T02:16:49.858Z,5.20
2018-12-29T02:19:21.291Z,5.20
2018-12-29T02:21:52.452Z,5.20
2018-12-29T02:24:23.566Z,5.20
2018-12-29T02:26:54.660Z,5.10
2018-12-29T02:29:25.937Z,5.10
2018-12-29T02:31:57.059Z,5.10
2018-12-29T02:34:28.456Z,5.10
2018-12-29T02:37:02.030Z,5.10
2018-12-29T02:39:33.172Z,5.10
2018-12-29T02:42:04.246Z,5.20
2018-12-29T02:44:35.497Z,5.10
2018-12-29T02:47:06.792Z,5.20
2018-12-29T02:49:37.893Z,5.20
2018-12-29T02:52:09.043Z,5.20
2018-12-29T02:54:40.448Z,5.10
2018-12-29T02:57:11.621Z,5.10
2018-12-29T02:59:42.717Z,5.10
2018-12-29T03:02:14.027Z,5.10
2018-12-29T03:04:45.116Z,5.10
2018-12-29T03:07:16.247Z,5.10
2018-12-29T03:09:47.401Z,5.10
2018-12-29T03:12:18.587Z,5.10
2018-12-29T03:14:50.011Z,5.10
2018-12-29T03:17:21.424Z,5.10
2018-12-29T03:19:52.491Z,5.20
2018-12-29T03:22:23.570Z,5.20
2018-12-29T03:24:54.737Z,5.20
2018-12-29T03:27:25.824Z,5.30
2018-12-29T03:29:57.313Z,5.30
2018-12-29T03:32:28.417Z,5.30
2018-12-29T03:34:59.903Z,5.30
2018-12-29T03:37:30.913Z,5.30
2018-12-29T03:40:01.974Z,5.30
2018-12-29T03:42:33.128Z,5.30
2018-12-29T03:45:04.299Z,5.20
2018-12-29T03:47:35.289Z,5.20
2018-12-29T03:50:06.614Z,5.20
2018-12-29T03:52:37.548Z,5.20
2018-12-29T03:55:08.812Z,5.20
2018-12-29T03:57:40.081Z,5.20
2018-12-29T04:00:11.325Z,5.20
2018-12-29T04:02:42.306Z,5.10
2018-12-29T04:05:13.570Z,5.10
2018-12-29T04:07:44.869Z,5.10
2018-12-29T04:10:17.856Z,5.10
2018-12-29T04:12:53.063Z,5.10
2018-12-29T04:15:24.196Z,5.10
2018-12-29T04:17:55.231Z,5.10
2018-12-29T04:20:26.470Z,5.10
2018-12-29T04:22:57.451Z,5.10
2018-12-29T04:25:28.800Z,5.10
2018-12-29T04:27:59.808Z,5.20
2018-12-29T04:30:31.379Z,5.20
2018-12-29T04:33:02.244Z,5.10
2018-12-29T04:35:33.206Z,5.20
2018-12-29T04:38:04.404Z,5.20
2018-12-29T04:40:35.743Z,5.20
2018-12-29T04:43:06.727Z,5.20
2018-12-29T04:45:37.919Z,5.20
2018-12-29T04:48:09.159Z,5.20
2018-12-29T04:50:40.160Z,5.20
2018-12-29T04:53:11.139Z,5.30
2018-12-29T04:55:42.154Z,5.30
2018-12-29T04:58:13.127Z,5.30
2018-12-29T05:00:44.122Z,5.30
2018-12-29T05:03:15.020Z,5.30
2018-12-29T05:05:46.085Z,5.30
2018-12-29T05:08:17.228Z,5.30
2018-12-29T05:10:48.263Z,5.30
2018-12-29T05:13:19.449Z,5.30
2018-12-29T05:15:50.406Z,5.30
2018-12-29T05:18:21.331Z,5.30
2018-12-29T05:20:52.568Z,5.30
2018-12-29T05:23:23.740Z,5.30
2018-12-29T05:25:54.678Z,5.40
2018-12-29T05:28:25.799Z,5.40
2018-12-29T05:30:56.890Z,5.40
2018-12-29T05:33:28.116Z,5.50
2018-12-29T05:35:59.308Z,5.50
2018-12-29T05:38:30.843Z,5.50
2018-12-29T05:41:01.957Z,5.50
2018-12-29T05:43:33.076Z,5.60
2018-12-29T05:46:05.095Z,5.50
2018-12-29T05:48:36.336Z,5.50
2018-12-29T05:51:07.496Z,5.50
2018-12-29T05:53:39.574Z,5.50
2018-12-29T05:56:10.593Z,5.50
2018-12-29T05:58:41.609Z,5.40
2018-12-29T06:01:12.756Z,5.40
2018-12-29T06:03:43.912Z,5.40
2018-12-29T06:06:15.142Z,5.30
2018-12-29T06:08:46.409Z,5.30
2018-12-29T06:11:17.607Z,5.30
2018-12-29T06:13:48.657Z,5.30
2018-12-29T06:16:27.383Z,5.30
2018-12-29T06:18:52.821Z,5.30
2018-12-29T06:21:24.019Z,5.30
2018-12-29T06:23:55.034Z,5.40
2018-12-29T06:26:26.186Z,5.40
2018-12-29T06:28:57.266Z,5.50
2018-12-29T06:31:28.304Z,5.40
2018-12-29T06:33:59.389Z,5.50
2018-12-29T06:36:30.572Z,5.50
2018-12-29T06:39:01.902Z,5.50
2018-12-29T06:41:34.217Z,5.60
2018-12-29T06:44:05.257Z,5.60
2018-12-29T06:46:36.558Z,5.60
2018-12-29T06:49:07.871Z,5.60
2018-12-29T06:51:39.281Z,5.60
2018-12-29T06:54:10.379Z,5.60
2018-12-29T06:56:41.613Z,5.60
2018-12-29T06:59:12.969Z,5.50
2018-12-29T07:01:44.171Z,5.50
2018-12-29T07:04:15.296Z,5.50
2018-12-29T07:06:46.493Z,5.50
2018-12-29T07:09:17.995Z,5.50
2018-12-29T07:11:49.435Z,5.50
2018-12-29T07:14:20.476Z,5.50
2018-12-29T07:16:51.809Z,5.50
2018-12-29T07:19:22.947Z,5.50
2018-12-29T07:21:54.214Z,5.50
2018-12-29T07:24:25.462Z,5.50
2018-12-29T07:26:57.018Z,5.50
2018-12-29T07:29:28.355Z,5.50
2018-12-29T07:31:59.498Z,5.50
2018-12-29T07:34:30.489Z,5.50
2018-12-29T07:37:01.678Z,5.50
2018-12-29T07:39:34.019Z,5.50
2018-12-29T07:42:05.402Z,5.40
2018-12-29T07:44:36.849Z,5.50
2018-12-29T07:47:08.319Z,5.50
2018-12-29T07:49:39.627Z,5.50
2018-12-29T07:52:11.011Z,5.50
2018-12-29T07:54:42.120Z,5.50
2018-12-29T07:57:13.691Z,5.50
2018-12-29T07:59:45.098Z,5.50
2018-12-29T08:02:16.388Z,5.50
2018-12-29T08:04:47.641Z,5.50
2018-12-29T08:07:18.916Z,5.70
2018-12-29T08:09:50.632Z,5.90
2018-12-29T08:12:21.914Z,5.90
2018-12-29T08:14:53.041Z,6.00
2018-12-29T08:17:24.434Z,6.00
2018-12-29T08:19:55.948Z,6.00
2018-12-29T08:22:27.338Z,5.90
2018-12-29T08:24:58.539Z,6.10
2018-12-29T08:27:30.275Z,6.20
2018-12-29T08:30:01.664Z,6.20
2018-12-29T08:32:32.959Z,6.10
2018-12-29T08:35:04.335Z,6.10
2018-12-29T08:37:37.252Z,6.00
2018-12-29T08:40:08.843Z,6.00
2018-12-29T08:42:40.748Z,6.10
2018-12-29T08:45:12.332Z,6.10
2018-12-29T08:47:43.537Z,6.20
2018-12-29T08:50:15.080Z,6.20
2018-12-29T08:52:46.724Z,6.20
2018-12-29T08:55:18.165Z,6.40
2018-12-29T08:57:49.578Z,6.50
2018-12-29T09:00:20.942Z,6.50
2018-12-29T09:02:52.743Z,6.40
2018-12-29T09:05:24.097Z,6.40
2018-12-29T09:07:55.733Z,6.50
2018-12-29T09:10:27.072Z,6.40
2018-12-29T09:12:58.278Z,6.40
2018-12-29T09:15:29.598Z,6.40
2018-12-29T09:18:01.362Z,6.40
2018-12-29T09:20:32.880Z,6.40
2018-12-29T09:23:04.425Z,6.40
2018-12-29T09:25:35.818Z,6.40
2018-12-29T09:28:07.464Z,6.50
2018-12-29T09:30:38.926Z,6.60
2018-12-29T09:33:10.451Z,6.60
2018-12-29T09:35:41.832Z,6.70
2018-12-29T09:38:13.319Z,6.60
2018-12-29T09:40:44.887Z,6.60
2018-12-29T09:43:16.468Z,6.60
2018-12-29T09:45:47.873Z,6.60
2018-12-29T09:48:19.451Z,6.50
2018-12-29T09:50:50.973Z,6.50
2018-12-29T09:53:22.539Z,6.50
2018-12-29T09:55:53.966Z,6.50
2018-12-29T09:58:25.867Z,6.50
2018-12-29T10:00:57.152Z,6.50
2018-12-29T10:03:28.802Z,6.40
2018-12-29T10:06:00.159Z,6.50
2018-12-29T10:08:31.785Z,6.50
2018-12-29T10:11:03.231Z,6.50
2018-12-29T10:13:34.855Z,6.50
2018-12-29T10:16:06.332Z,6.40
2018-12-29T10:18:37.795Z,6.40
2018-12-29T10:21:09.693Z,6.30
2018-12-29T10:23:42.195Z,6.30
2018-12-29T10:26:13.874Z,6.30
2018-12-29T10:28:45.481Z,6.30
2018-12-29T10:31:16.838Z,6.30
2018-12-29T10:33:48.148Z,6.30
2018-12-29T10:36:19.777Z,6.40
2018-12-29T10:38:51.113Z,6.50
2018-12-29T10:41:22.365Z,6.60
2018-12-29T10:43:54.263Z,6.60
2018-12-29T10:46:25.687Z,6.70
2018-12-29T10:48:57.653Z,6.70
2018-12-29T10:51:29.309Z,6.80
2018-12-29T10:54:01.409Z,6.80
2018-12-29T10:56:32.692Z,6.80
2018-12-29T10:59:04.348Z,6.80
2018-12-29T11:01:35.951Z,6.80
2018-12-29T11:04:07.827Z,6.90
2018-12-29T11:06:39.086Z,7.00
2018-12-29T11:09:11.857Z,7.10
2018-12-29T11:11:43.532Z,7.10
2018-12-29T11:14:15.205Z,7.10
2018-12-29T11:16:48.195Z,7.10
2018-12-29T11:19:19.876Z,7.10
2018-12-29T11:21:51.282Z,7.10
2018-12-29T11:24:23.005Z,7.10
2018-12-29T11:26:54.416Z,7.10
2018-12-29T11:29:26.083Z,7.00
2018-12-29T11:31:57.457Z,6.90
2018-12-29T11:34:29.194Z,6.90
2018-12-29T11:37:01.806Z,6.80
2018-12-29T11:39:33.152Z,6.80
2018-12-29T11:42:04.537Z,6.80
2018-12-29T11:44:35.857Z,6.70
2018-12-29T11:47:07.194Z,6.70
2018-12-29T11:49:38.877Z,6.60
2018-12-29T11:52:10.361Z,6.50
2018-12-29T11:54:42.172Z,6.50
2018-12-29T11:57:13.889Z,6.50
2018-12-29T11:59:45.280Z,6.50
2018-12-29T12:02:16.627Z,6.60
2018-12-29T12:04:49.617Z,6.50
2018-12-29T12:07:21.064Z,6.50
2018-12-29T12:09:55.267Z,6.60
2018-12-29T12:12:26.617Z,6.60
2018-12-29T12:14:58.225Z,6.60
2018-12-29T12:17:29.699Z,6.50
2018-12-29T12:20:00.938Z,6.60
2018-12-29T12:22:32.329Z,6.60
2018-12-29T12:25:03.911Z,6.60
2018-12-29T12:27:35.321Z,6.60
2018-12-29T12:30:07.475Z,6.70
2018-12-29T12:32:39.127Z,6.60
2018-12-29T12:35:10.675Z,6.60
2018-12-29T12:37:41.860Z,6.70
2018-12-29T12:40:13.022Z,6.70
2018-12-29T12:42:44.440Z,6.70
2018-12-29T12:45:15.593Z,6.70
2018-12-29T12:47:46.605Z,6.70
2018-12-29T12:50:18.008Z,6.70
2018-12-29T12:52:49.192Z,6.70
2018-12-29T12:55:20.494Z,6.70
2018-12-29T12:57:52.038Z,6.80
2018-12-29T13:00:23.587Z,6.80
2018-12-29T13:02:54.985Z,6.80
2018-12-29T13:05:26.128Z,6.80
2018-12-29T13:07:57.496Z,6.80
2018-12-29T13:10:28.863Z,6.80
2018-12-29T13:13:00.239Z,6.80
2018-12-29T13:15:31.345Z,6.80
2018-12-29T13:18:02.481Z,6.80
2018-12-29T13:20:34.538Z,6.80
2018-12-29T13:23:05.939Z,6.80
2018-12-29T13:25:37.093Z,6.80
2018-12-29T13:28:08.383Z,6.80
2018-12-29T13:30:40.098Z,6.80
2018-12-29T13:33:11.264Z,6.70
2018-12-29T13:35:42.566Z,6.70
2018-12-29T13:38:13.697Z,6.80
2018-12-29T13:40:45.429Z,6.70
2018-12-29T13:43:16.640Z,6.70
2018-12-29T13:45:47.738Z,6.70
2018-12-29T13:48:20.643Z,6.70
2018-12-29T13:50:51.963Z,6.70
2018-12-29T13:53:23.069Z,6.70
2018-12-29T13:55:54.296Z,6.70
2018-12-29T13:58:25.373Z,6.70
2018-12-29T14:00:56.693Z,6.70
2018-12-29T14:03:28.031Z,6.70
2018-12-29T14:05:59.086Z,6.70
2018-12-29T14:08:30.206Z,6.70
2018-12-29T14:11:01.354Z,6.70
2018-12-29T14:13:32.423Z,6.70
2018-12-29T14:16:03.728Z,6.80
2018-12-29T14:18:34.994Z,6.70
2018-12-29T14:21:06.153Z,6.70
2018-12-29T14:23:37.238Z,6.80
2018-12-29T14:26:08.592Z,6.80
2018-12-29T14:28:39.779Z,6.80
2018-12-29T14:31:11.297Z,6.80
2018-12-29T14:33:42.696Z,6.80
2018-12-29T14:36:13.846Z,6.80
2018-12-29T14:38:45.237Z,6.90
2018-12-29T14:41:16.461Z,6.90
2018-12-29T14:43:47.754Z,6.90
2018-12-29T14:46:18.864Z,6.90
2018-12-29T14:48:50.012Z,6.90
2018-12-29T14:51:21.388Z,6.90
2018-12-29T14:53:52.471Z,6.90
2018-12-29T14:56:23.829Z,7.00
2018-12-29T14:58:55.048Z,7.00
2018-12-29T15:01:26.276Z,7.00
2018-12-29T15:03:57.928Z,7.00
2018-12-29T15:06:29.219Z,7.00
2018-12-29T15:09:00.531Z,7.10
2018-12-29T15:11:33.364Z,7.10
2018-12-29T15:14:04.780Z,7.10
2018-12-29T15:16:36.727Z,7.10
2018-12-29T15:19:08.161Z,7.10
2018-12-29T15:21:39.934Z,7.10
2018-12-29T15:24:11.419Z,7.10
2018-12-29T15:26:43.265Z,7.10
2018-12-29T15:29:14.884Z,7.10
2018-12-29T15:31:46.397Z,7.10
2018-12-29T15:34:17.812Z,7.10
2018-12-29T15:36:49.228Z,7.10
2018-12-29T15:39:20.501Z,7.10
2018-12-29T15:41:52.122Z,7.10
2018-12-29T15:44:23.280Z,7.10
2018-12-29T15:46:54.927Z,7.10
2018-12-29T15:49:27.550Z,7.10
2018-12-29T15:51:59.149Z,7.00
2018-12-29T15:54:31.605Z,7.00
2018-12-29T15:57:02.837Z,7.00
2018-12-29T15:59:34.452Z,7.00
2018-12-29T16:02:05.899Z,7.00
2018-12-29T16:04:37.364Z,7.00
2018-12-29T16:07:08.662Z,7.00
2018-12-29T16:09:40.296Z,6.90
2018-12-29T16:12:12.056Z,6.90
2018-12-29T16:14:45.850Z,6.90
2018-12-29T16:17:17.379Z,6.90
2018-12-29T16:19:49.213Z,6.90
2018-12-29T16:22:20.582Z,6.90
2018-12-29T16:24:51.918Z,6.90
2018-12-29T16:27:23.827Z,6.80
2018-12-29T16:29:55.019Z,6.90
2018-12-29T16:32:26.342Z,6.90
2018-12-29T16:34:57.371Z,6.80
2018-12-29T16:37:28.942Z,6.90
2018-12-29T16:40:00.816Z,6.80
2018-12-29T16:42:32.589Z,6.80
2018-12-29T16:45:04.016Z,6.70
2018-12-29T16:47:35.965Z,6.70
2018-12-29T16:50:08.429Z,6.70
2018-12-29T16:52:40.666Z,6.70
2018-12-29T16:55:12.547Z,6.70
2018-12-29T16:57:43.843Z,6.80
2018-12-29T17:00:14.982Z,6.80
2018-12-29T17:02:46.478Z,6.80
2018-12-29T17:05:17.872Z,6.80
2018-12-29T17:07:49.330Z,6.90
2018-12-29T17:10:20.652Z,6.90
2018-12-29T17:12:52.144Z,6.80
2018-12-29T17:15:23.338Z,6.80
2018-12-29T17:17:54.781Z,6.80
2018-12-29T17:20:26.062Z,6.80
2018-12-29T17:22:57.577Z,6.80
2018-12-29T17:25:29.508Z,6.80
2018-12-29T17:28:01.176Z,6.80
2018-12-29T17:30:32.895Z,6.80
2018-12-29T17:33:04.367Z,6.70
2018-12-29T17:35:35.860Z,6.70
2018-12-29T17:38:07.370Z,6.70
2018-12-29T17:40:38.868Z,6.70
2018-12-29T17:43:10.367Z,6.70
2018-12-29T17:45:41.766Z,6.70
2018-12-29T17:48:13.160Z,6.70
2018-12-29T17:50:44.399Z,6.70
2018-12-29T17:53:16.030Z,6.70
2018-12-29T17:55:47.141Z,6.80
2018-12-29T17:58:18.623Z,6.80
2018-12-29T18:00:50.063Z,6.70
2018-12-29T18:03:21.218Z,6.80
2018-12-29T18:05:52.809Z,6.70
2018-12-29T18:08:24.596Z,6.70
2018-12-29T18:10:56.020Z,6.70
2018-12-29T18:13:27.966Z,6.70
2018-12-29T18:15:59.629Z,6.70
2018-12-29T18:18:30.750Z,6.70
2018-12-29T18:21:01.959Z,6.70
2018-12-29T18:23:33.808Z,6.70
2018-12-29T18:26:06.170Z,6.70
2018-12-29T18:28:37.917Z,6.70
2018-12-29T18:31:09.395Z,6.70
2018-12-29T18:33:40.869Z,6.70
2018-12-29T18:36:13.892Z,6.70
2018-12-29T18:38:45.598Z,6.70
2018-12-29T18:41:16.983Z,6.70
2018-12-29T18:43:48.719Z,6.70
2018-12-29T18:46:20.159Z,6.70
2018-12-29T18:48:51.899Z,6.70
2018-12-29T18:51:23.200Z,6.80
2018-12-29T18:53:54.400Z,6.80
2018-12-29T18:56:26.253Z,6.80
2018-12-29T18:58:57.786Z,6.80
2018-12-29T19:01:29.176Z,6.80
2018-12-29T19:04:00.939Z,6.80
2018-12-29T19:06:32.473Z,6.90
2018-12-29T19:09:05.078Z,6.80
2018-12-29T19:11:36.981Z,6.80
2018-12-29T19:14:08.900Z,6.80
2018-12-29T19:16:40.394Z,6.80
2018-12-29T19:19:11.786Z,6.80
2018-12-29T19:21:43.035Z,6.80
2018-12-29T19:24:14.401Z,6.80
2018-12-29T19:26:46.202Z,6.80
2018-12-29T19:29:17.700Z,6.70
2018-12-29T19:31:49.336Z,6.70
2018-12-29T19:34:21.226Z,6.70
2018-12-29T19:36:52.567Z,6.70
2018-12-29T19:39:24.404Z,6.70
2018-12-29T19:41:56.657Z,6.70
2018-12-29T19:44:28.882Z,6.70
2018-12-29T19:47:01.026Z,6.70
2018-12-29T19:49:32.827Z,6.70
2018-12-29T19:52:03.761Z,6.70
2018-12-29T19:54:35.617Z,6.70
2018-12-29T19:57:10.427Z,6.80
2018-12-29T19:59:46.365Z,6.80
2018-12-29T20:02:18.345Z,6.80
2018-12-29T20:04:49.606Z,6.80
2018-12-29T20:07:21.590Z,6.80
2018-12-29T20:09:52.666Z,6.80
2018-12-29T20:12:24.938Z,6.80
2018-12-29T20:14:56.916Z,6.80
2018-12-29T20:17:34.844Z,6.80
2018-12-29T20:20:16.800Z,6.80
2018-12-29T20:22:47.916Z,6.80
2018-12-29T20:25:19.625Z,6.80
2018-12-29T20:27:55.455Z,6.80
2018-12-29T20:30:32.534Z,6.80
2018-12-29T20:33:08.557Z,6.80
2018-12-29T20:35:40.422Z,6.80
2018-12-29T20:38:11.371Z,6.80
2018-12-29T20:40:42.305Z,6.80
2018-12-29T20:43:13.219Z,6.80
2018-12-29T20:45:44.166Z,6.80
2018-12-29T20:48:15.091Z,6.80
2018-12-29T20:50:46.351Z,6.80
2018-12-29T20:53:17.316Z,6.80
2018-12-29T20:55:48.266Z,6.90
2018-12-29T20:58:19.176Z,6.80
2018-12-29T21:00:50.142Z,6.80
2018-12-29T21:03:21.201Z,6.90
2018-12-29T21:05:52.292Z,6.90
2018-12-29T21:08:23.220Z,6.80
2018-12-29T21:10:54.604Z,6.90
2018-12-29T21:13:25.492Z,6.90
2018-12-29T21:15:56.447Z,6.80
2018-12-29T21:18:27.391Z,6.80
2018-12-29T21:20:58.346Z,6.80
2018-12-29T21:23:29.276Z,6.80
2018-12-29T21:26:00.256Z,6.80
2018-12-29T21:28:33.765Z,6.80
2018-12-29T21:31:05.852Z,6.70
2018-12-29T21:33:40.669Z,6.70
2018-12-29T21:36:13.973Z,6.70
2018-12-29T21:38:44.925Z,6.70
2018-12-29T21:41:15.918Z,6.70
2018-12-29T21:43:46.880Z,6.70
2018-12-29T21:46:17.869Z,6.70
2018-12-29T21:48:48.765Z,6.70
2018-12-29T21:51:19.721Z,6.70
2018-12-29T21:53:50.686Z,6.70
2018-12-29T21:56:22.104Z,6.70
2018-12-29T21:58:53.041Z,6.60
2018-12-29T22:01:24.007Z,6.70
2018-12-29T22:03:54.937Z,6.70
2018-12-29T22:06:25.898Z,6.70
2018-12-29T22:08:56.820Z,6.70
2018-12-29T22:11:27.801Z,6.70
2018-12-29T22:13:58.729Z,6.70
2018-12-29T22:16:29.722Z,6.70
2018-12-29T22:19:00.662Z,6.80
2018-12-29T22:21:31.619Z,6.70
2018-12-29T22:24:02.582Z,6.70
2018-12-29T22:26:33.513Z,6.80
2018-12-29T22:29:17.941Z,6.80
2018-12-29T22:31:51.722Z,6.80
2018-12-29T22:34:22.641Z,6.80
2018-12-29T22:36:53.605Z,6.90
2018-12-29T22:39:24.558Z,6.80
2018-12-29T22:41:56.464Z,6.90
2018-12-29T22:44:27.367Z,6.90
2018-12-29T22:46:58.356Z,6.90
2018-12-29T22:49:29.267Z,6.90
2018-12-29T22:52:00.590Z,6.90
2018-12-29T22:54:31.557Z,6.90
2018-12-29T22:57:02.550Z,6.90
2018-12-29T22:59:33.452Z,7.00
2018-12-29T23:02:04.664Z,6.90
2018-12-29T23:04:35.556Z,6.90
2018-12-29T23:07:07.041Z,7.00
2018-12-29T23:09:37.928Z,6.90
2018-12-29T23:12:08.945Z,6.90
2018-12-29T23:14:39.843Z,6.90
2018-12-29T23:17:10.859Z,6.90
2018-12-29T23:19:41.787Z,6.80
2018-12-29T23:22:13.724Z,6.80
2018-12-29T23:24:44.618Z,6.80
2018-12-29T23:27:15.579Z,6.80
2018-12-29T23:29:46.481Z,6.80
2018-12-29T23:32:17.472Z,6.80
2018-12-29T23:34:48.399Z,6.80
2018-12-29T23:37:19.454Z,6.80
2018-12-29T23:39:50.778Z,6.80
2018-12-29T23:42:21.744Z,6.80
2018-12-29T23:44:52.691Z,6.80
2018-12-29T23:47:23.733Z,6.80
2018-12-29T23:49:54.611Z,6.80
2018-12-29T23:52:25.524Z,6.70
2018-12-29T23:54:56.386Z,6.80
2018-12-29T23:57:27.364Z,6.80
2018-12-29T23:59:58.277Z,6.80
